Coodys Bluff, Oklahoma
Current Conditions -  °F | °C
As of 8:24 PM on Sunday 21 Dec 2014 (Local Time) from KBVO Reporting Station
Overcast Overcast  
Wind Chill: 39°   Ceiling: 4300
Heat Index: 45°   Visibility: 10mi
Dew Point: 41°   Wind: 12mph
Humidity: 86%   Direction: 160°SSE
Pressure: 29.79"   Gusts: NA
Location:  36.6745°N, 95.6917°W
Report Text: KBVO 220224Z AUTO 16010KT 10SM SCT020 OVC043 07/05 A2979 RMK AO2 T00720050
Loading
Personal Weather Stations






























Interactive Weather Map New forecast layout! Learn more

10-Day Weather Forecast

Advertisements
Track Severe Weather on mobile